sensor_id;sensor_type;location;lat;lon;timestamp;P1;durP1;ratioP1;P2;durP2;ratioP2
5125;SDS011;63008;53.112;8.896;2023-04-15T00:01:51;11.00;;;9.20;;
5125;SDS011;63008;53.112;8.896;2023-04-15T00:03:53;13.33;;;9.20;;
5125;SDS011;63008;53.112;8.896;2023-04-15T00:05:54;13.40;;;10.53;;
5125;SDS011;63008;53.112;8.896;2023-04-15T00:07:56;11.03;;;9.83;;
5125;SDS011;63008;53.112;8.896;2023-04-15T00:09:58;11.10;;;9.13;;
5125;SDS011;63008;53.112;8.896;2023-04-15T00:11:59;12.47;;;10.47;;
5125;SDS011;63008;53.112;8.896;2023-04-15T00:14:00;12.13;;;9.53;;
5125;SDS011;63008;53.112;8.896;2023-04-15T00:16:01;11.27;;;9.77;;
5125;SDS011;63008;53.112;8.896;2023-04-15T00:18:02;13.37;;;10.50;;
5125;SDS011;63008;53.112;8.896;2023-04-15T00:20:04;11.63;;;10.20;;
5125;SDS011;63008;53.112;8.896;2023-04-15T00:22:06;12.50;;;10.83;;
5125;SDS011;63008;53.112;8.896;2023-04-15T00:24:07;13.33;;;10.57;;
5125;SDS011;63008;53.112;8.896;2023-04-15T00:26:08;12.50;;;9.93;;
5125;SDS011;63008;53.112;8.896;2023-04-15T00:28:09;11.97;;;9.10;;
5125;SDS011;63008;53.112;8.896;2023-04-15T00:30:10;11.00;;;9.67;;
5125;SDS011;63008;53.112;8.896;2023-04-15T00:32:11;14.00;;;10.37;;
5125;SDS011;63008;53.112;8.896;2023-04-15T00:34:12;13.03;;;11.63;;
5125;SDS011;63008;53.112;8.896;2023-04-15T00:36:14;12.67;;;10.70;;
5125;SDS011;63008;53.112;8.896;2023-04-15T00:38:15;12.77;;;10.57;;
5125;SDS011;63008;53.112;8.896;2023-04-15T00:40:16;11.90;;;10.50;;
5125;SDS011;63008;53.112;8.896;2023-04-15T00:42:19;12.57;;;10.03;;
5125;SDS011;63008;53.112;8.896;2023-04-15T00:44:21;12.17;;;10.40;;
5125;SDS011;63008;53.112;8.896;2023-04-15T00:46:22;11.47;;;10.17;;
5125;SDS011;63008;53.112;8.896;2023-04-15T00:48:23;12.63;;;10.77;;
5125;SDS011;63008;53.112;8.896;2023-04-15T00:50:24;11.97;;;10.60;;
5125;SDS011;63008;53.112;8.896;2023-04-15T00:52:25;11.67;;;10.37;;
5125;SDS011;63008;53.112;8.896;2023-04-15T00:54:26;11.37;;;9.97;;
5125;SDS011;63008;53.112;8.896;2023-04-15T00:56:27;12.20;;;10.63;;
5125;SDS011;63008;53.112;8.896;2023-04-15T00:58:28;12.10;;;10.60;;
5125;SDS011;63008;53.112;8.896;2023-04-15T01:00:29;12.80;;;10.47;;
5125;SDS011;63008;53.112;8.896;2023-04-15T01:02:30;12.13;;;10.10;;
5125;SDS011;63008;53.112;8.896;2023-04-15T01:04:32;12.70;;;10.70;;
5125;SDS011;63008;53.112;8.896;2023-04-15T01:06:33;15.43;;;11.50;;
5125;SDS011;63008;53.112;8.896;2023-04-15T01:08:34;15.10;;;11.57;;
5125;SDS011;63008;53.112;8.896;2023-04-15T01:10:35;14.33;;;11.13;;
5125;SDS011;63008;53.112;8.896;2023-04-15T01:12:36;14.20;;;11.23;;
5125;SDS011;63008;53.112;8.896;2023-04-15T01:14:37;12.53;;;11.23;;
5125;SDS011;63008;53.112;8.896;2023-04-15T01:16:38;15.80;;;11.83;;
5125;SDS011;63008;53.112;8.896;2023-04-15T01:18:39;16.17;;;11.90;;
5125;SDS011;63008;53.112;8.896;2023-04-15T01:20:41;15.17;;;12.53;;
5125;SDS011;63008;53.112;8.896;2023-04-15T01:22:42;13.27;;;11.83;;
5125;SDS011;63008;53.112;8.896;2023-04-15T01:24:45;15.57;;;12.23;;
5125;SDS011;63008;53.112;8.896;2023-04-15T01:27:01;13.80;;;12.40;;
5125;SDS011;63008;53.112;8.896;2023-04-15T01:29:03;13.20;;;11.83;;
5125;SDS011;63008;53.112;8.896;2023-04-15T01:31:10;14.63;;;13.03;;
5125;SDS011;63008;53.112;8.896;2023-04-15T01:33:13;15.23;;;12.37;;
5125;SDS011;63008;53.112;8.896;2023-04-15T01:35:14;15.93;;;12.73;;
5125;SDS011;63008;53.112;8.896;2023-04-15T01:37:15;16.70;;;13.10;;
5125;SDS011;63008;53.112;8.896;2023-04-15T01:39:16;15.23;;;13.20;;
5125;SDS011;63008;53.112;8.896;2023-04-15T01:41:20;20.77;;;14.80;;
5125;SDS011;63008;53.112;8.896;2023-04-15T01:43:25;16.53;;;13.70;;
5125;SDS011;63008;53.112;8.896;2023-04-15T01:45:26;15.47;;;12.23;;
5125;SDS011;63008;53.112;8.896;2023-04-15T01:47:27;18.97;;;12.87;;
5125;SDS011;63008;53.112;8.896;2023-04-15T01:49:28;17.80;;;13.43;;
5125;SDS011;63008;53.112;8.896;2023-04-15T01:51:29;17.40;;;12.90;;
5125;SDS011;63008;53.112;8.896;2023-04-15T01:53:30;15.87;;;12.70;;
5125;SDS011;63008;53.112;8.896;2023-04-15T01:55:31;18.60;;;13.23;;
5125;SDS011;63008;53.112;8.896;2023-04-15T01:57:32;17.10;;;12.80;;
5125;SDS011;63008;53.112;8.896;2023-04-15T01:59:34;15.23;;;13.63;;
5125;SDS011;63008;53.112;8.896;2023-04-15T02:01:35;18.37;;;13.00;;
5125;SDS011;63008;53.112;8.896;2023-04-15T02:03:36;17.10;;;12.90;;
5125;SDS011;63008;53.112;8.896;2023-04-15T02:05:38;16.53;;;13.60;;
5125;SDS011;63008;53.112;8.896;2023-04-15T02:07:39;18.03;;;13.07;;
5125;SDS011;63008;53.112;8.896;2023-04-15T02:09:41;17.50;;;13.47;;
5125;SDS011;63008;53.112;8.896;2023-04-15T02:11:43;17.00;;;13.70;;
5125;SDS011;63008;53.112;8.896;2023-04-15T02:13:44;18.03;;;13.13;;
5125;SDS011;63008;53.112;8.896;2023-04-15T02:15:48;16.90;;;13.53;;
5125;SDS011;63008;53.112;8.896;2023-04-15T02:17:50;15.80;;;12.87;;
5125;SDS011;63008;53.112;8.896;2023-04-15T02:19:52;14.57;;;12.83;;
5125;SDS011;63008;53.112;8.896;2023-04-15T02:21:53;16.70;;;12.93;;
5125;SDS011;63008;53.112;8.896;2023-04-15T02:23:54;17.20;;;13.80;;
5125;SDS011;63008;53.112;8.896;2023-04-15T02:25:55;14.87;;;13.23;;
5125;SDS011;63008;53.112;8.896;2023-04-15T02:27:56;17.10;;;11.73;;
5125;SDS011;63008;53.112;8.896;2023-04-15T02:29:57;19.63;;;12.30;;
5125;SDS011;63008;53.112;8.896;2023-04-15T02:31:58;15.90;;;12.73;;
5125;SDS011;63008;53.112;8.896;2023-04-15T02:33:59;14.73;;;11.40;;
5125;SDS011;63008;53.112;8.896;2023-04-15T02:36:02;15.60;;;11.37;;
5125;SDS011;63008;53.112;8.896;2023-04-15T02:38:03;12.63;;;10.87;;
5125;SDS011;63008;53.112;8.896;2023-04-15T02:40:08;19.33;;;11.23;;
5125;SDS011;63008;53.112;8.896;2023-04-15T02:42:11;16.60;;;11.67;;
5125;SDS011;63008;53.112;8.896;2023-04-15T02:44:12;13.87;;;10.60;;
5125;SDS011;63008;53.112;8.896;2023-04-15T02:46:13;13.00;;;11.60;;
5125;SDS011;63008;53.112;8.896;2023-04-15T02:48:14;13.47;;;11.43;;
5125;SDS011;63008;53.112;8.896;2023-04-15T02:50:17;17.53;;;12.30;;
5125;SDS011;63008;53.112;8.896;2023-04-15T02:52:18;15.13;;;11.03;;
5125;SDS011;63008;53.112;8.896;2023-04-15T02:54:20;16.20;;;12.67;;
5125;SDS011;63008;53.112;8.896;2023-04-15T02:56:22;15.33;;;12.43;;
5125;SDS011;63008;53.112;8.896;2023-04-15T02:58:23;15.83;;;12.00;;
5125;SDS011;63008;53.112;8.896;2023-04-15T03:00:27;16.83;;;12.20;;
5125;SDS011;63008;53.112;8.896;2023-04-15T03:02:37;17.30;;;12.57;;
5125;SDS011;63008;53.112;8.896;2023-04-15T03:04:38;13.73;;;11.90;;
5125;SDS011;63008;53.112;8.896;2023-04-15T03:06:40;15.40;;;13.07;;
5125;SDS011;63008;53.112;8.896;2023-04-15T03:08:41;13.23;;;11.43;;
5125;SDS011;63008;53.112;8.896;2023-04-15T03:10:41;15.80;;;12.57;;
5125;SDS011;63008;53.112;8.896;2023-04-15T03:12:42;20.70;;;13.63;;
5125;SDS011;63008;53.112;8.896;2023-04-15T03:14:43;16.50;;;13.63;;
5125;SDS011;63008;53.112;8.896;2023-04-15T03:16:45;17.50;;;14.60;;
5125;SDS011;63008;53.112;8.896;2023-04-15T03:18:46;18.20;;;13.97;;
5125;SDS011;63008;53.112;8.896;2023-04-15T03:20:47;18.50;;;14.20;;
5125;SDS011;63008;53.112;8.896;2023-04-15T03:22:47;15.17;;;13.10;;
5125;SDS011;63008;53.112;8.896;2023-04-15T03:24:48;18.67;;;15.47;;
5125;SDS011;63008;53.112;8.896;2023-04-15T03:26:50;17.10;;;13.50;;
5125;SDS011;63008;53.112;8.896;2023-04-15T03:28:51;19.23;;;15.27;;
5125;SDS011;63008;53.112;8.896;2023-04-15T03:30:51;17.33;;;14.00;;
5125;SDS011;63008;53.112;8.896;2023-04-15T03:32:52;21.60;;;16.17;;
5125;SDS011;63008;53.112;8.896;2023-04-15T03:34:53;18.77;;;15.13;;
5125;SDS011;63008;53.112;8.896;2023-04-15T03:36:55;19.27;;;14.40;;
5125;SDS011;63008;53.112;8.896;2023-04-15T03:38:55;18.70;;;14.90;;
5125;SDS011;63008;53.112;8.896;2023-04-15T03:40:57;22.57;;;17.03;;
5125;SDS011;63008;53.112;8.896;2023-04-15T03:42:58;20.37;;;14.50;;
5125;SDS011;63008;53.112;8.896;2023-04-15T03:44:59;20.13;;;14.53;;
5125;SDS011;63008;53.112;8.896;2023-04-15T03:47:00;17.57;;;14.10;;
5125;SDS011;63008;53.112;8.896;2023-04-15T03:49:01;20.37;;;14.50;;
5125;SDS011;63008;53.112;8.896;2023-04-15T03:51:02;22.77;;;14.47;;
5125;SDS011;63008;53.112;8.896;2023-04-15T03:53:03;19.10;;;16.00;;
5125;SDS011;63008;53.112;8.896;2023-04-15T03:55:04;18.20;;;14.07;;
5125;SDS011;63008;53.112;8.896;2023-04-15T03:57:05;20.50;;;14.20;;
5125;SDS011;63008;53.112;8.896;2023-04-15T03:59:06;22.23;;;16.10;;
5125;SDS011;63008;53.112;8.896;2023-04-15T04:01:07;19.20;;;14.83;;
5125;SDS011;63008;53.112;8.896;2023-04-15T04:03:08;23.10;;;14.20;;
5125;SDS011;63008;53.112;8.896;2023-04-15T04:05:09;21.87;;;15.20;;
5125;SDS011;63008;53.112;8.896;2023-04-15T04:07:16;17.57;;;13.80;;
5125;SDS011;63008;53.112;8.896;2023-04-15T04:09:18;17.60;;;14.27;;
5125;SDS011;63008;53.112;8.896;2023-04-15T04:11:18;20.00;;;14.23;;
5125;SDS011;63008;53.112;8.896;2023-04-15T04:13:20;22.60;;;15.33;;
5125;SDS011;63008;53.112;8.896;2023-04-15T04:15:21;20.40;;;15.03;;
5125;SDS011;63008;53.112;8.896;2023-04-15T04:17:22;22.97;;;14.87;;
5125;SDS011;63008;53.112;8.896;2023-04-15T04:19:23;21.07;;;15.33;;
5125;SDS011;63008;53.112;8.896;2023-04-15T04:21:24;21.53;;;15.10;;
5125;SDS011;63008;53.112;8.896;2023-04-15T04:23:26;23.37;;;16.70;;
5125;SDS011;63008;53.112;8.896;2023-04-15T04:25:27;25.20;;;17.20;;
5125;SDS011;63008;53.112;8.896;2023-04-15T04:27:28;24.67;;;18.77;;
5125;SDS011;63008;53.112;8.896;2023-04-15T04:29:29;25.40;;;16.77;;
5125;SDS011;63008;53.112;8.896;2023-04-15T04:31:30;25.40;;;18.67;;
5125;SDS011;63008;53.112;8.896;2023-04-15T04:33:31;27.30;;;17.73;;
5125;SDS011;63008;53.112;8.896;2023-04-15T04:35:32;30.10;;;19.80;;
5125;SDS011;63008;53.112;8.896;2023-04-15T04:37:34;31.10;;;19.23;;
5125;SDS011;63008;53.112;8.896;2023-04-15T04:39:35;32.40;;;18.30;;
5125;SDS011;63008;53.112;8.896;2023-04-15T04:41:36;32.50;;;21.27;;
5125;SDS011;63008;53.112;8.896;2023-04-15T04:43:37;35.10;;;21.77;;
5125;SDS011;63008;53.112;8.896;2023-04-15T04:45:38;31.50;;;19.73;;
5125;SDS011;63008;53.112;8.896;2023-04-15T04:47:39;35.03;;;22.10;;
5125;SDS011;63008;53.112;8.896;2023-04-15T04:49:40;37.27;;;22.80;;
5125;SDS011;63008;53.112;8.896;2023-04-15T04:51:41;33.50;;;22.00;;
5125;SDS011;63008;53.112;8.896;2023-04-15T04:53:42;33.67;;;24.37;;
5125;SDS011;63008;53.112;8.896;2023-04-15T04:55:43;34.40;;;22.13;;
5125;SDS011;63008;53.112;8.896;2023-04-15T04:57:44;28.63;;;20.50;;
5125;SDS011;63008;53.112;8.896;2023-04-15T04:59:45;29.67;;;21.50;;
5125;SDS011;63008;53.112;8.896;2023-04-15T05:01:46;30.10;;;21.77;;
5125;SDS011;63008;53.112;8.896;2023-04-15T05:03:47;36.80;;;23.90;;
5125;SDS011;63008;53.112;8.896;2023-04-15T05:05:48;38.60;;;23.60;;
5125;SDS011;63008;53.112;8.896;2023-04-15T05:07:49;40.33;;;23.20;;
5125;SDS011;63008;53.112;8.896;2023-04-15T05:09:50;40.43;;;22.67;;
5125;SDS011;63008;53.112;8.896;2023-04-15T05:11:51;36.60;;;23.83;;
5125;SDS011;63008;53.112;8.896;2023-04-15T05:13:52;36.83;;;23.10;;
5125;SDS011;63008;53.112;8.896;2023-04-15T05:15:53;36.60;;;23.10;;
5125;SDS011;63008;53.112;8.896;2023-04-15T05:17:54;36.30;;;24.00;;
5125;SDS011;63008;53.112;8.896;2023-04-15T05:19:55;36.00;;;23.23;;
5125;SDS011;63008;53.112;8.896;2023-04-15T05:21:56;38.17;;;24.03;;
5125;SDS011;63008;53.112;8.896;2023-04-15T05:23:57;41.00;;;26.10;;
5125;SDS011;63008;53.112;8.896;2023-04-15T05:25:58;39.67;;;24.47;;
5125;SDS011;63008;53.112;8.896;2023-04-15T05:27:59;37.60;;;23.97;;
5125;SDS011;63008;53.112;8.896;2023-04-15T05:30:00;36.53;;;24.17;;
5125;SDS011;63008;53.112;8.896;2023-04-15T05:32:01;35.27;;;23.20;;
5125;SDS011;63008;53.112;8.896;2023-04-15T05:34:02;35.73;;;23.67;;
5125;SDS011;63008;53.112;8.896;2023-04-15T05:36:05;34.10;;;23.97;;
5125;SDS011;63008;53.112;8.896;2023-04-15T05:38:06;43.07;;;25.80;;
5125;SDS011;63008;53.112;8.896;2023-04-15T05:40:07;41.40;;;24.50;;
5125;SDS011;63008;53.112;8.896;2023-04-15T05:42:10;36.27;;;23.60;;
5125;SDS011;63008;53.112;8.896;2023-04-15T05:44:11;35.80;;;24.20;;
5125;SDS011;63008;53.112;8.896;2023-04-15T05:46:12;35.90;;;24.23;;
5125;SDS011;63008;53.112;8.896;2023-04-15T05:48:13;44.93;;;24.90;;
5125;SDS011;63008;53.112;8.896;2023-04-15T05:50:14;40.77;;;25.10;;
5125;SDS011;63008;53.112;8.896;2023-04-15T05:52:15;31.77;;;22.40;;
5125;SDS011;63008;53.112;8.896;2023-04-15T05:54:16;36.60;;;22.60;;
5125;SDS011;63008;53.112;8.896;2023-04-15T05:56:18;38.83;;;24.00;;
5125;SDS011;63008;53.112;8.896;2023-04-15T05:58:20;40.37;;;24.47;;
5125;SDS011;63008;53.112;8.896;2023-04-15T06:00:21;38.77;;;25.90;;
5125;SDS011;63008;53.112;8.896;2023-04-15T06:02:22;37.40;;;25.07;;
5125;SDS011;63008;53.112;8.896;2023-04-15T06:04:23;41.47;;;24.97;;
5125;SDS011;63008;53.112;8.896;2023-04-15T06:06:24;40.33;;;25.23;;
5125;SDS011;63008;53.112;8.896;2023-04-15T06:08:25;37.23;;;23.60;;
5125;SDS011;63008;53.112;8.896;2023-04-15T06:10:26;42.97;;;24.47;;
5125;SDS011;63008;53.112;8.896;2023-04-15T06:12:27;43.53;;;25.97;;
5125;SDS011;63008;53.112;8.896;2023-04-15T06:14:28;38.00;;;24.43;;
5125;SDS011;63008;53.112;8.896;2023-04-15T06:16:29;33.13;;;22.43;;
5125;SDS011;63008;53.112;8.896;2023-04-15T06:18:30;34.90;;;24.63;;
5125;SDS011;63008;53.112;8.896;2023-04-15T06:20:31;33.40;;;23.17;;
5125;SDS011;63008;53.112;8.896;2023-04-15T06:22:32;33.97;;;23.07;;
5125;SDS011;63008;53.112;8.896;2023-04-15T06:24:33;34.50;;;23.63;;
5125;SDS011;63008;53.112;8.896;2023-04-15T06:26:36;36.20;;;21.87;;
5125;SDS011;63008;53.112;8.896;2023-04-15T06:28:37;33.83;;;23.37;;
5125;SDS011;63008;53.112;8.896;2023-04-15T06:30:38;35.23;;;23.57;;
5125;SDS011;63008;53.112;8.896;2023-04-15T06:32:39;37.63;;;23.77;;
5125;SDS011;63008;53.112;8.896;2023-04-15T06:34:40;32.20;;;21.83;;
5125;SDS011;63008;53.112;8.896;2023-04-15T06:36:41;32.93;;;22.70;;
5125;SDS011;63008;53.112;8.896;2023-04-15T06:38:42;30.93;;;22.00;;
5125;SDS011;63008;53.112;8.896;2023-04-15T06:40:43;34.37;;;21.93;;
5125;SDS011;63008;53.112;8.896;2023-04-15T06:42:44;30.47;;;21.87;;
5125;SDS011;63008;53.112;8.896;2023-04-15T06:44:45;31.43;;;21.00;;
5125;SDS011;63008;53.112;8.896;2023-04-15T06:46:46;33.63;;;22.07;;
5125;SDS011;63008;53.112;8.896;2023-04-15T06:48:47;30.60;;;21.90;;
5125;SDS011;63008;53.112;8.896;2023-04-15T06:50:48;31.03;;;21.97;;
5125;SDS011;63008;53.112;8.896;2023-04-15T06:52:55;31.20;;;21.63;;
5125;SDS011;63008;53.112;8.896;2023-04-15T06:54:56;33.77;;;22.30;;
5125;SDS011;63008;53.112;8.896;2023-04-15T06:56:59;33.90;;;22.20;;
5125;SDS011;63008;53.112;8.896;2023-04-15T06:59:02;32.73;;;21.80;;
5125;SDS011;63008;53.112;8.896;2023-04-15T07:01:03;33.60;;;22.20;;
5125;SDS011;63008;53.112;8.896;2023-04-15T07:03:04;31.90;;;21.77;;
5125;SDS011;63008;53.112;8.896;2023-04-15T07:05:05;33.00;;;22.33;;
5125;SDS011;63008;53.112;8.896;2023-04-15T07:07:07;34.73;;;22.30;;
5125;SDS011;63008;53.112;8.896;2023-04-15T07:09:09;31.90;;;21.17;;
5125;SDS011;63008;53.112;8.896;2023-04-15T07:11:10;34.17;;;21.13;;
5125;SDS011;63008;53.112;8.896;2023-04-15T07:13:11;34.60;;;21.90;;
5125;SDS011;63008;53.112;8.896;2023-04-15T07:15:12;29.40;;;20.13;;
5125;SDS011;63008;53.112;8.896;2023-04-15T07:17:13;31.23;;;21.30;;
5125;SDS011;63008;53.112;8.896;2023-04-15T07:19:15;36.00;;;21.27;;
5125;SDS011;63008;53.112;8.896;2023-04-15T07:21:16;28.70;;;20.73;;
5125;SDS011;63008;53.112;8.896;2023-04-15T07:23:17;27.70;;;20.40;;
5125;SDS011;63008;53.112;8.896;2023-04-15T07:25:18;30.87;;;20.70;;
5125;SDS011;63008;53.112;8.896;2023-04-15T07:27:19;32.10;;;20.43;;
5125;SDS011;63008;53.112;8.896;2023-04-15T07:29:20;30.17;;;19.23;;
5125;SDS011;63008;53.112;8.896;2023-04-15T07:31:21;29.40;;;22.30;;
5125;SDS011;63008;53.112;8.896;2023-04-15T07:33:22;27.57;;;20.20;;
5125;SDS011;63008;53.112;8.896;2023-04-15T07:35:23;25.60;;;19.30;;
5125;SDS011;63008;53.112;8.896;2023-04-15T07:37:29;29.23;;;20.50;;
5125;SDS011;63008;53.112;8.896;2023-04-15T07:39:30;29.93;;;22.03;;
5125;SDS011;63008;53.112;8.896;2023-04-15T07:41:31;27.77;;;21.17;;
5125;SDS011;63008;53.112;8.896;2023-04-15T07:43:32;26.27;;;20.60;;
5125;SDS011;63008;53.112;8.896;2023-04-15T07:45:33;26.03;;;20.10;;
5125;SDS011;63008;53.112;8.896;2023-04-15T07:47:35;28.57;;;20.80;;
5125;SDS011;63008;53.112;8.896;2023-04-15T07:49:36;25.17;;;20.33;;
5125;SDS011;63008;53.112;8.896;2023-04-15T07:51:37;32.43;;;22.20;;
5125;SDS011;63008;53.112;8.896;2023-04-15T07:53:38;26.83;;;20.33;;
5125;SDS011;63008;53.112;8.896;2023-04-15T07:55:39;28.27;;;22.30;;
5125;SDS011;63008;53.112;8.896;2023-04-15T07:57:41;27.43;;;21.10;;
5125;SDS011;63008;53.112;8.896;2023-04-15T07:59:42;27.40;;;22.27;;
5125;SDS011;63008;53.112;8.896;2023-04-15T08:01:43;28.20;;;21.87;;
5125;SDS011;63008;53.112;8.896;2023-04-15T08:03:44;26.33;;;20.30;;
5125;SDS011;63008;53.112;8.896;2023-04-15T08:05:45;30.10;;;22.80;;
5125;SDS011;63008;53.112;8.896;2023-04-15T08:07:47;28.97;;;21.57;;
5125;SDS011;63008;53.112;8.896;2023-04-15T08:09:47;30.60;;;22.57;;
5125;SDS011;63008;53.112;8.896;2023-04-15T08:11:48;25.73;;;20.57;;
5125;SDS011;63008;53.112;8.896;2023-04-15T08:13:51;27.63;;;20.97;;
5125;SDS011;63008;53.112;8.896;2023-04-15T08:15:55;27.03;;;20.83;;
5125;SDS011;63008;53.112;8.896;2023-04-15T08:18:20;25.93;;;20.47;;
5125;SDS011;63008;53.112;8.896;2023-04-15T08:20:21;23.80;;;19.50;;
5125;SDS011;63008;53.112;8.896;2023-04-15T08:22:22;27.70;;;20.87;;
5125;SDS011;63008;53.112;8.896;2023-04-15T08:24:23;26.37;;;20.77;;
5125;SDS011;63008;53.112;8.896;2023-04-15T08:26:25;24.97;;;21.07;;
5125;SDS011;63008;53.112;8.896;2023-04-15T08:28:26;24.97;;;20.20;;
5125;SDS011;63008;53.112;8.896;2023-04-15T08:30:27;23.60;;;19.93;;
5125;SDS011;63008;53.112;8.896;2023-04-15T08:32:28;21.20;;;18.73;;
5125;SDS011;63008;53.112;8.896;2023-04-15T08:34:29;21.07;;;18.13;;
5125;SDS011;63008;53.112;8.896;2023-04-15T08:36:30;22.53;;;19.20;;
5125;SDS011;63008;53.112;8.896;2023-04-15T08:38:32;22.10;;;18.47;;
5125;SDS011;63008;53.112;8.896;2023-04-15T08:40:35;21.53;;;19.20;;
5125;SDS011;63008;53.112;8.896;2023-04-15T08:42:43;18.67;;;16.67;;
5125;SDS011;63008;53.112;8.896;2023-04-15T08:44:48;23.20;;;18.57;;
5125;SDS011;63008;53.112;8.896;2023-04-15T08:46:50;20.97;;;18.03;;
5125;SDS011;63008;53.112;8.896;2023-04-15T08:48:54;20.20;;;18.03;;
5125;SDS011;63008;53.112;8.896;2023-04-15T08:50:57;21.40;;;17.87;;
5125;SDS011;63008;53.112;8.896;2023-04-15T08:52:58;22.63;;;18.93;;
5125;SDS011;63008;53.112;8.896;2023-04-15T08:54:59;21.73;;;18.40;;
5125;SDS011;63008;53.112;8.896;2023-04-15T08:57:02;19.50;;;17.40;;
5125;SDS011;63008;53.112;8.896;2023-04-15T08:59:03;21.20;;;18.57;;
5125;SDS011;63008;53.112;8.896;2023-04-15T09:01:05;19.27;;;17.20;;
5125;SDS011;63008;53.112;8.896;2023-04-15T09:03:07;19.43;;;17.37;;
5125;SDS011;63008;53.112;8.896;2023-04-15T09:05:08;23.67;;;18.80;;
5125;SDS011;63008;53.112;8.896;2023-04-15T09:07:09;19.57;;;17.60;;
5125;SDS011;63008;53.112;8.896;2023-04-15T09:09:11;19.30;;;17.33;;
5125;SDS011;63008;53.112;8.896;2023-04-15T09:11:13;19.50;;;17.47;;
5125;SDS011;63008;53.112;8.896;2023-04-15T09:13:14;21.07;;;17.80;;
5125;SDS011;63008;53.112;8.896;2023-04-15T09:15:15;19.23;;;17.13;;
5125;SDS011;63008;53.112;8.896;2023-04-15T09:17:17;22.37;;;19.87;;
5125;SDS011;63008;53.112;8.896;2023-04-15T09:19:21;19.33;;;17.33;;
5125;SDS011;63008;53.112;8.896;2023-04-15T09:21:22;20.83;;;18.63;;
5125;SDS011;63008;53.112;8.896;2023-04-15T09:23:24;18.17;;;16.30;;
5125;SDS011;63008;53.112;8.896;2023-04-15T09:25:25;20.03;;;17.90;;
5125;SDS011;63008;53.112;8.896;2023-04-15T09:27:28;19.07;;;16.73;;
5125;SDS011;63008;53.112;8.896;2023-04-15T09:29:29;18.47;;;16.60;;
5125;SDS011;63008;53.112;8.896;2023-04-15T09:31:30;18.30;;;16.40;;
5125;SDS011;63008;53.112;8.896;2023-04-15T09:33:31;18.10;;;16.20;;
5125;SDS011;63008;53.112;8.896;2023-04-15T09:35:32;17.97;;;16.20;;
5125;SDS011;63008;53.112;8.896;2023-04-15T09:37:34;17.63;;;15.83;;
5125;SDS011;63008;53.112;8.896;2023-04-15T09:39:45;18.30;;;16.40;;
5125;SDS011;63008;53.112;8.896;2023-04-15T09:42:06;17.87;;;15.97;;
5125;SDS011;63008;53.112;8.896;2023-04-15T09:44:20;19.53;;;17.40;;
5125;SDS011;63008;53.112;8.896;2023-04-15T09:46:40;20.00;;;17.00;;
5125;SDS011;63008;53.112;8.896;2023-04-15T09:48:42;16.97;;;15.03;;
5125;SDS011;63008;53.112;8.896;2023-04-15T09:50:44;16.57;;;14.57;;
5125;SDS011;63008;53.112;8.896;2023-04-15T09:52:45;17.90;;;16.00;;
5125;SDS011;63008;53.112;8.896;2023-04-15T09:54:46;17.70;;;15.90;;
5125;SDS011;63008;53.112;8.896;2023-04-15T09:56:47;19.20;;;16.83;;
5125;SDS011;63008;53.112;8.896;2023-04-15T09:58:55;17.00;;;15.20;;
5125;SDS011;63008;53.112;8.896;2023-04-15T10:00:56;18.80;;;15.07;;
5125;SDS011;63008;53.112;8.896;2023-04-15T10:02:58;17.87;;;14.83;;
5125;SDS011;63008;53.112;8.896;2023-04-15T10:05:00;16.20;;;14.43;;
5125;SDS011;63008;53.112;8.896;2023-04-15T10:07:02;16.13;;;14.33;;
5125;SDS011;63008;53.112;8.896;2023-04-15T10:09:04;16.20;;;14.50;;
5125;SDS011;63008;53.112;8.896;2023-04-15T10:11:06;15.80;;;14.20;;
5125;SDS011;63008;53.112;8.896;2023-04-15T10:13:07;18.60;;;15.70;;
5125;SDS011;63008;53.112;8.896;2023-04-15T10:15:12;16.67;;;14.87;;
5125;SDS011;63008;53.112;8.896;2023-04-15T10:17:16;19.23;;;14.80;;
5125;SDS011;63008;53.112;8.896;2023-04-15T10:19:18;18.47;;;16.00;;
5125;SDS011;63008;53.112;8.896;2023-04-15T10:21:25;18.27;;;15.23;;
5125;SDS011;63008;53.112;8.896;2023-04-15T10:23:27;24.33;;;18.00;;
5125;SDS011;63008;53.112;8.896;2023-04-15T10:25:28;19.30;;;15.60;;
5125;SDS011;63008;53.112;8.896;2023-04-15T10:27:30;20.27;;;17.80;;
5125;SDS011;63008;53.112;8.896;2023-04-15T10:29:31;25.00;;;18.97;;
5125;SDS011;63008;53.112;8.896;2023-04-15T10:31:32;20.37;;;16.77;;
5125;SDS011;63008;53.112;8.896;2023-04-15T10:33:33;20.97;;;17.30;;
5125;SDS011;63008;53.112;8.896;2023-04-15T10:35:35;24.87;;;17.50;;
5125;SDS011;63008;53.112;8.896;2023-04-15T10:37:37;21.57;;;17.13;;
5125;SDS011;63008;53.112;8.896;2023-04-15T10:39:41;23.70;;;17.43;;
5125;SDS011;63008;53.112;8.896;2023-04-15T10:41:43;23.50;;;17.90;;
5125;SDS011;63008;53.112;8.896;2023-04-15T10:43:46;25.07;;;19.30;;
5125;SDS011;63008;53.112;8.896;2023-04-15T10:45:50;22.70;;;17.83;;
5125;SDS011;63008;53.112;8.896;2023-04-15T10:47:56;20.80;;;17.00;;
5125;SDS011;63008;53.112;8.896;2023-04-15T10:50:00;22.90;;;18.10;;
5125;SDS011;63008;53.112;8.896;2023-04-15T10:52:02;26.63;;;18.33;;
5125;SDS011;63008;53.112;8.896;2023-04-15T10:54:03;25.17;;;19.60;;
5125;SDS011;63008;53.112;8.896;2023-04-15T10:56:09;25.50;;;20.10;;
5125;SDS011;63008;53.112;8.896;2023-04-15T10:58:10;24.80;;;18.20;;
5125;SDS011;63008;53.112;8.896;2023-04-15T11:00:12;26.57;;;19.80;;
5125;SDS011;63008;53.112;8.896;2023-04-15T11:02:16;26.97;;;19.20;;
5125;SDS011;63008;53.112;8.896;2023-04-15T11:07:03;27.80;;;20.50;;
5125;SDS011;63008;53.112;8.896;2023-04-15T11:09:06;33.00;;;22.50;;
5125;SDS011;63008;53.112;8.896;2023-04-15T11:11:09;29.40;;;20.23;;
5125;SDS011;63008;53.112;8.896;2023-04-15T11:17:33;32.50;;;22.73;;
5125;SDS011;63008;53.112;8.896;2023-04-15T11:19:37;39.93;;;24.33;;
5125;SDS011;63008;53.112;8.896;2023-04-15T11:21:38;39.90;;;24.90;;
5125;SDS011;63008;53.112;8.896;2023-04-15T11:23:40;41.40;;;27.80;;
5125;SDS011;63008;53.112;8.896;2023-04-15T11:25:48;47.20;;;27.53;;
5125;SDS011;63008;53.112;8.896;2023-04-15T11:27:49;47.30;;;30.03;;
5125;SDS011;63008;53.112;8.896;2023-04-15T11:29:51;50.37;;;30.87;;
5125;SDS011;63008;53.112;8.896;2023-04-15T11:31:52;50.40;;;27.40;;
5125;SDS011;63008;53.112;8.896;2023-04-15T11:33:57;52.00;;;31.37;;
5125;SDS011;63008;53.112;8.896;2023-04-15T11:35:59;51.70;;;31.20;;
5125;SDS011;63008;53.112;8.896;2023-04-15T11:38:04;58.60;;;33.23;;
5125;SDS011;63008;53.112;8.896;2023-04-15T11:40:08;62.43;;;32.70;;
5125;SDS011;63008;53.112;8.896;2023-04-15T11:42:16;50.67;;;30.87;;
5125;SDS011;63008;53.112;8.896;2023-04-15T11:44:17;56.70;;;32.70;;
5125;SDS011;63008;53.112;8.896;2023-04-15T11:46:19;64.47;;;33.90;;
5125;SDS011;63008;53.112;8.896;2023-04-15T11:48:21;62.33;;;33.63;;
5125;SDS011;63008;53.112;8.896;2023-04-15T11:50:24;65.93;;;34.70;;
5125;SDS011;63008;53.112;8.896;2023-04-15T11:52:25;62.50;;;35.00;;
5125;SDS011;63008;53.112;8.896;2023-04-15T11:54:26;70.53;;;35.67;;
5125;SDS011;63008;53.112;8.896;2023-04-15T11:56:27;65.07;;;35.60;;
5125;SDS011;63008;53.112;8.896;2023-04-15T11:58:28;63.13;;;35.90;;
5125;SDS011;63008;53.112;8.896;2023-04-15T12:00:29;65.00;;;37.80;;
5125;SDS011;63008;53.112;8.896;2023-04-15T12:02:30;64.33;;;36.47;;
5125;SDS011;63008;53.112;8.896;2023-04-15T12:04:32;56.50;;;34.03;;
5125;SDS011;63008;53.112;8.896;2023-04-15T12:06:33;69.50;;;36.23;;
5125;SDS011;63008;53.112;8.896;2023-04-15T12:08:48;58.00;;;33.20;;
5125;SDS011;63008;53.112;8.896;2023-04-15T12:10:57;72.10;;;37.37;;
5125;SDS011;63008;53.112;8.896;2023-04-15T12:12:59;66.00;;;35.20;;